AirNav   Bose Proflight Series 2 Wireless Aviation Headset
 
 1010 users online  

9MI7 Glen Oaks Heliport
Novi, Michigan, USA

GOING TO NOVI?


FAA INFORMATION EFFECTIVE 07 NOVEMBER 2019

Location

FAA Identifier: 9MI7
Lat/Long: 42-29-24.1230N 083-27-54.7670W
42-29.402050N 083-27.912783W
42.4900342,-83.4652131
(estimated)
Elevation: 920 ft. / 280 m (estimated)
Variation: 06W (1985)
Time zone: UTC -5 (UTC -4 during Daylight Saving Time)
Zip code: 48377

Heliport Operations

Heliport use: Private use, PERSONAL USE.
Activation date: 10/1984
Control tower: no
ARTCC: CLEVELAND CENTER
FSS: LANSING FLIGHT SERVICE STATION
Attendance: UNATNDD
Wind indicator: yes
Segmented circle: no

Heliport Communications

WX ASOS at PTK (11 nm N): 125.025 (248-886-8551)
WX AWOS-3 at VLL (13 nm E): 119.475 (248-288-4649)
WX ASOS at YIP (15 nm S): PHONE 734-961-6843
WX ASOS at DTW (17 nm S): PHONE 734-955-5015

Nearby radio navigation aids

VOR radial/distance  VOR name  Freq  Var
SVMr052/7.5SALEM VORTAC114.3003W
DXOr351/17.2DETROIT VOR/DME113.4006W
CRLr002/26.5CARLETON VOR/DME115.7003W
FNTr163/31.2FLINT VORTAC116.9006W
YQGr303/31.7WINDSOR VOR/DME113.8006W

 
NDB name  Hdg/Dist  Freq  Var  ID
GROSSE ILE336/27.141907WRYS .-. -.-- ...
TECUMSEH040/33.123906WTCU - -.-. ..-

Heliport Services

Runway Information

Helipad H1

Dimensions: 20 x 20 ft. / 6 x 6 m
Surface: concrete
Traffic pattern: leftleft

Heliport Ownership and Management from official FAA records

Ownership: Privately-owned
Owner: NOVI INVESTMENTS
43100 TWELVE OAKS CRESCENT
NOVI, MI 48377
Phone 810-348-7550
Manager: G STIEHLER
43100 TWELVE OAKS CRESCENT
NOVI, MI 48377
Phone 810-348-0741
APT A106.

Additional Remarks

FOR CD CTC DETROIT APCH AT 800-499-8181.

Instrument Procedures

There are no published instrument procedures at 9MI7.

Some nearby airports with instrument procedures:

Y47 - Oakland Southwest Airport (7 nm W)
1D2 - Canton-Plymouth-Mettetal Airport (9 nm S)
KPTK - Oakland County International Airport (11 nm N)
KVLL - Oakland/Troy Airport (13 nm E)
KYIP - Willow Run Airport (15 nm S)
KDTW - Detroit Metropolitan Wayne County Airport (17 nm S)
 
Loc | Ops | Rwys | IFR | FBO | Links
Com | Nav | Svcs | Stats | Notes
Area around 9MI7 (Glen Oaks Heliport)
 
Road maps at: MapQuest Bing Google
 
Aerial photo
No photo
 
Sectional chart

 
Airport distance calculator
Flying to Glen Oaks Heliport? Find the distance to fly.

From to 9MI7

Sunrise and sunset
Times for 20-Nov-2019
 Local
(UTC-5)
 Zulu
(UTC)
Morning civil twilight07:0212:02
Sunrise07:3212:32
Sunset17:0722:07
Evening civil twilight17:3822:38

Current date and time
Zulu (UTC)  20-Nov-2019 12:47:49
Local (UTC-5)  20-Nov-2019 07:47:49
 
METAR
KPTK 
11nm N 
201153Z 28004KT 5SM BR OVC027 02/00 A3010 RMK AO2 SLP199 T00220000 10028 20017 51024
KVLL 
13nm E 
201236Z AUTO 28003KT 5SM BR OVC031 04/02 A3015 RMK AO2 T00350017
KYIP 
16nm S 
201153Z 29004KT 6SM HZ OVC028 03/00 A3013 RMK AO2 SLP205 T00280000 10039 20011 51024
KDTW 
16nm S 
201231Z 31003KT 3SM HZ OVC025 03/00 A3015 RMK AO2 TWR VIS 4 T00280000
KARB 
20nm SW 
734-668-7173
201153Z AUTO 00000KT 4SM BR OVC024 01/M01 A3012 RMK AO2 SLP207 T00061006 10028 21028 51023
KDET 
21nm E 
201153Z 30003KT 6SM BR FEW022 OVC033 03/02 A3012 RMK AO2 SLP204 T00330022 10039 20033 51026
TAF
KPTK 
11nm N 
201124Z 2012/2112 30004KT 4SM BR OVC026 FM201400 28005KT P6SM OVC022 FM201700 25005KT P6SM OVC016 FM210200 19005KT P6SM OVC015 FM210900 16008KT P6SM SCT015 BKN200
KYIP 
16nm S 
201124Z 2012/2112 28006KT 4SM BR OVC035 FM201400 29003KT P6SM OVC028 FM201800 22005KT P6SM OVC022 FM210500 16004KT P6SM BKN018 FM210800 17008KT P6SM SCT015 BKN200
KDTW 
16nm S 
201124Z 2012/2118 28006KT 4SM BR OVC035 FM201400 29003KT P6SM OVC028 FM201800 22005KT P6SM OVC022 FM210500 16004KT P6SM BKN018 FM210800 17008KT P6SM SCT015 BKN200 FM211400 18011KT P6SM OVC120
NOTAMs
Click for the latest NOTAMs
NOTAMs are issued by the DoD/FAA and will open in a separate window not controlled by AirNav.

 

 
 

Would you like to see your business listed on this page?

 If your business provides an interesting product or service to pilots, flight crews, aircraft, or users of the Glen Oaks Heliport, you should consider listing it here.  To start the listing process, click on the button below
 
Add a business
 

Other Pages about Glen Oaks Heliport

Update a link
 
Copyright © AirNav, LLC. All rights reserved. Privacy Policy  Contact